Hammondsport, New York
Current Conditions -  °F | °C
As of 3:53 PM on Tuesday 21 Oct 2014 (Local Time) from KPEO Reporting Station
Overcast Overcast  
Wind Chill: 53°   Ceiling: 1900
Heat Index: 53°   Visibility: 10mi
Dew Point: 50°   Wind: 0mph
Humidity: 89%   Direction: NA
Pressure: 29.87"   Gusts: NA
Location:  42.41°N, 77.22°W
Report Text: KPEO 211953Z AUTO 00000KT 10SM BKN019 OVC042 12/10 A2987 RMK AO2 RAE30 SLP118 P0001 T01170100
Loading
Personal Weather Stations






























Interactive Weather Map
Tropical Storm Tracking
New forecast layout! Learn more

10-Day Weather Forecast

Advertisements
Track Severe Weather on mobile